Latest METARs, TAFs and NOTAMs for MROC


---------------------------------------------------------------------------
	(OBSERVATIONS)
MROC 210500Z 27004KT 9999 FEW003 21/20 A3003 NOSIG=
MROC 210300Z VRB01KT 9999 SCT020 21/20 A3003 NOSIG=
---------------------------------------------------------------------------
	(TERMINAL AREA FORECAST)
MROC 210500Z 2106/2206 07004KT 9999 FEW025
    TX28/2119Z TN19/2112Z
    TEMPO 2106/2110 VRB02KT BCFG FEW003
    BECMG 2114/2116 25009KT
    TEMPO 2121/2103 RA BKN030
    MRLB 210500Z 2106/2206 13006KT 9999 FEW030
    TX32/2119Z TN23/2111Z
    BECMG 2116/2119 28007KT
    TEMPO 2121/2124 SHRA FEW020TCU
    BECMG 2200/2202 15005KT=
---------------------------------------------------------------------------
	(NOTAMS)


MROC A0307/18 REF AIRAC AMDT NR 22 EFFECTIVE DATE 01 FEB 18,MROC
    AD 10.5 RNP W2 RWY 25 (AR) AVAILABLE FOR ACFT CAT D. 13 FEB
    18:19 2018 UNTIL PERM. CREATED: 13 FEB 18:23 2018

MROC A0314/18 REF AIRAC AMDT NR 22 EFFECTIVE DATE 01 FEB 18,
    MROC AD 7.5 SID RNAV NANJO AVAILABLE FOR ACFT CAT D. 13 FEB
    21:15 2018 UNTIL PERM. CREATED: 13 FEB 21:25 2018

MROC A0317/18 REF AIRAC AMDT NR 22 EFFECTIVE DATE 01 FEB 18,
    MROC AD 10.6 RNP E2 RWY 25 (AR) AVAILABLE FOR ACFT CAT D.
    13 FEB 21:58 2018 UNTIL PERM. CREATED: 13 FEB 22:03 2018

MROC A0318/18 REF AIRAC AMDT NR 22 EFFECTIVE DATE 01 FEB 18,
    MROC AD 9.6 STAR RNAV CUARE AVAILABLE FOR ACFT CAT D. 13
    FEB 21:59 2018 UNTIL PERM. CREATED: 13 FEB 22:04 2018

MROC A0423/18 RWY 07/25 CLSD. 0500-1000, 16 AUG 05:00 2018 UNTIL
    01 NOV 10:00 2018. CREATED: 27 FEB 22:59 2018

MROC A0474/18 REF COSTA RICA AIP PAGS ENR 3.1-5, ENR 3.2-5, ENR
    3.3-1, ENR 4.4-1, MROC AD 7.2, MROC AD 7.6, MROC AD 9.2,
    MROC AD 9.6, ISEBA COORDINATES READ 093229N0825212W INSTEAD
    OF 093006N0824950W OR 084805.8N0841143.2W. 06 MAR 22:09 2018
    UNTIL PERM. CREATED: 06 MAR 22:09 2018

MROC A0678/18 PERM COSTA RICA AIP SUP AIRAC 20/18 WEF 24 MAY
    2018, PART 3 AD MROC RWY 07/25 CHANGES TO SID, STAR AND RNAV
    PROCEDURES CHARTS. 24 MAY 00:00 2018 UNTIL 07 JUN 23:59 2018.
    CREATED: 12 APR 14:23 2018

MROC A0741/18 INSTRUMENT APCH PROC RNAV GNSS RWY 07 CNL REF AD
    10.4/SUP AIP A03/16. 18 APR 19:32 2018 UNTIL PERM. CREATED:
    18 APR 19:34 2018

MROC A0892/18 TWY A 50M W OF TWY D TIL 100M E OF TWY E OPR BUT
    CTN ADVISED DUE TO WIP. 17 MAY 12:00 2018 UNTIL 26 MAY 23:59
    2018. CREATED: 17 MAY 02:39 2018

MROC A0914/18 TWY A 50M W OF TWY D TIL 30M E OF TWY E CLSD. 22
    MAY 14:30 2018 UNTIL 09 JUN 11:00 2018. CREATED: 19 MAY 14:54
    2018

MROC A1572/16 VMC PROCEDURE AIRSPACE C REF COSTA RICA AIP PAGE
    MROC AD 2.23 CNL. 25 AUG 01:54 2016 UNTIL PERM. CREATED:
    25 AUG 01:55 2016

MROC C0293/17 CORREDOR VISUAL LA PALMA SE CORRIGEN LAS COORDENADAS
    DEL PUNTO PIEDA :095848N 0840224W.REF.SUP C27/16. 18 JUL
    21:58 2017 UNTIL PERM. CREATED: 18 JUL 21:59 2017

---------------------------------------------------------------------------